sensor_id;sensor_type;location;lat;lon;timestamp;pressure;altitude;pressure_sealevel;temperature;humidity
39823;BME280;25499;53.958;10.970;2022-11-20T07:15:27;100787.97;;;0.42;100.00
39823;BME280;25499;53.958;10.970;2022-11-20T07:17:53;100782.69;;;0.38;100.00
39823;BME280;25499;53.958;10.970;2022-11-20T07:20:18;100789.91;;;0.48;100.00
39823;BME280;25499;53.958;10.970;2022-11-20T07:22:44;100782.81;;;0.63;100.00
39823;BME280;25499;53.958;10.970;2022-11-20T07:25:09;100791.69;;;0.96;100.00
39823;BME280;25499;53.958;10.970;2022-11-20T07:27:37;100794.03;;;1.14;100.00
39823;BME280;25499;53.958;10.970;2022-11-20T07:32:55;100795.44;;;1.29;100.00
39823;BME280;25499;53.958;10.970;2022-11-20T07:35:25;100793.19;;;1.39;100.00
39823;BME280;25499;53.958;10.970;2022-11-20T07:37:51;100794.41;;;1.48;100.00
39823;BME280;25499;53.958;10.970;2022-11-20T07:40:21;100797.25;;;1.56;100.00
39823;BME280;25499;53.958;10.970;2022-11-20T07:42:52;100793.03;;;1.58;100.00
39823;BME280;25499;53.958;10.970;2022-11-20T07:45:26;100796.41;;;1.57;100.00
39823;BME280;25499;53.958;10.970;2022-11-20T07:47:58;100799.81;;;1.58;100.00
39823;BME280;25499;53.958;10.970;2022-11-20T07:51:10;100795.94;;;1.43;100.00
39823;BME280;25499;53.958;10.970;2022-11-20T07:57:19;100799.69;;;1.53;100.00
39823;BME280;25499;53.958;10.970;2022-11-20T07:59:44;100808.03;;;1.47;100.00
39823;BME280;25499;53.958;10.970;2022-11-20T08:02:13;100799.09;;;1.12;100.00
39823;BME280;25499;53.958;10.970;2022-11-20T08:04:39;100803.78;;;1.48;100.00
39823;BME280;25499;53.958;10.970;2022-11-20T08:07:38;100799.47;;;1.47;100.00
39823;BME280;25499;53.958;10.970;2022-11-20T08:10:41;100802.47;;;1.35;100.00
39823;BME280;25499;53.958;10.970;2022-11-20T08:16:58;100802.38;;;1.32;100.00
39823;BME280;25499;53.958;10.970;2022-11-20T08:19:59;100796.81;;;1.20;100.00
39823;BME280;25499;53.958;10.970;2022-11-20T08:25:40;100799.75;;;1.55;100.00
39823;BME280;25499;53.958;10.970;2022-11-20T08:28:09;100807.34;;;1.52;100.00
39823;BME280;25499;53.958;10.970;2022-11-20T08:30:39;100800.56;;;1.54;100.00
39823;BME280;25499;53.958;10.970;2022-11-20T08:33:08;100799.22;;;1.39;100.00
39823;BME280;25499;53.958;10.970;2022-11-20T08:35:38;100795.44;;;1.29;100.00
39823;BME280;25499;53.958;10.970;2022-11-20T08:38:06;100789.72;;;1.13;100.00
39823;BME280;25499;53.958;10.970;2022-11-20T08:40:59;100805.03;;;1.35;100.00
39823;BME280;25499;53.958;10.970;2022-11-20T08:43:44;100808.38;;;1.33;100.00
39823;BME280;25499;53.958;10.970;2022-11-20T08:46:10;100814.25;;;1.54;100.00
39823;BME280;25499;53.958;10.970;2022-11-20T08:48:42;100811.84;;;1.59;100.00
39823;BME280;25499;53.958;10.970;2022-11-20T08:51:16;100815.44;;;1.64;100.00
39823;BME280;25499;53.958;10.970;2022-11-20T08:53:42;100813.44;;;1.81;100.00
39823;BME280;25499;53.958;10.970;2022-11-20T08:56:09;100802.81;;;1.70;100.00
39823;BME280;25499;53.958;10.970;2022-11-20T08:58:36;100800.25;;;1.70;100.00
39823;BME280;25499;53.958;10.970;2022-11-20T09:01:07;100802.00;;;1.71;100.00
39823;BME280;25499;53.958;10.970;2022-11-20T09:03:33;100803.53;;;1.66;100.00
39823;BME280;25499;53.958;10.970;2022-11-20T09:18:56;100796.38;;;1.83;100.00
39823;BME280;25499;53.958;10.970;2022-11-20T09:21:24;100797.63;;;1.94;100.00
39823;BME280;25499;53.958;10.970;2022-11-20T09:23:55;100794.00;;;1.88;100.00
39823;BME280;25499;53.958;10.970;2022-11-20T09:26:21;100786.81;;;1.77;100.00
39823;BME280;25499;53.958;10.970;2022-11-20T09:28:47;100786.22;;;1.86;100.00
39823;BME280;25499;53.958;10.970;2022-11-20T09:31:22;100789.75;;;1.90;100.00
39823;BME280;25499;53.958;10.970;2022-11-20T09:33:48;100788.38;;;1.99;100.00
39823;BME280;25499;53.958;10.970;2022-11-20T09:36:13;100787.25;;;1.91;100.00
39823;BME280;25499;53.958;10.970;2022-11-20T09:38:39;100787.59;;;2.02;100.00
39823;BME280;25499;53.958;10.970;2022-11-20T09:41:10;100806.84;;;3.31;100.00
39823;BME280;25499;53.958;10.970;2022-11-20T09:46:49;100778.13;;;6.49;87.96
39823;BME280;25499;53.958;10.970;2022-11-20T09:52:00;100766.72;;;4.85;85.81
39823;BME280;25499;53.958;10.970;2022-11-20T09:54:30;100759.63;;;4.36;86.93
39823;BME280;25499;53.958;10.970;2022-11-20T09:57:00;100764.25;;;4.13;88.10
39823;BME280;25499;53.958;10.970;2022-11-20T10:02:03;100769.50;;;3.81;90.50
39823;BME280;25499;53.958;10.970;2022-11-20T10:04:32;100757.03;;;3.63;90.77
39823;BME280;25499;53.958;10.970;2022-11-20T10:07:03;100763.94;;;3.30;91.85
39823;BME280;25499;53.958;10.970;2022-11-20T10:09:36;100759.63;;;2.97;92.92
39823;BME280;25499;53.958;10.970;2022-11-20T10:15:04;100773.13;;;2.60;96.59
39823;BME280;25499;53.958;10.970;2022-11-20T10:18:01;100769.38;;;2.21;97.27
39823;BME280;25499;53.958;10.970;2022-11-20T10:23:18;100786.34;;;2.16;100.00
39823;BME280;25499;53.958;10.970;2022-11-20T10:29:09;100785.97;;;2.31;100.00
39823;BME280;25499;53.958;10.970;2022-11-20T10:31:37;100780.78;;;2.30;100.00
39823;BME280;25499;53.958;10.970;2022-11-20T10:34:12;100777.09;;;2.50;100.00
39823;BME280;25499;53.958;10.970;2022-11-20T10:36:54;100780.94;;;2.65;100.00
39823;BME280;25499;53.958;10.970;2022-11-20T10:39:28;100769.94;;;2.69;99.15
39823;BME280;25499;53.958;10.970;2022-11-20T10:41:56;100768.94;;;2.64;98.68
39823;BME280;25499;53.958;10.970;2022-11-20T10:44:27;100770.28;;;2.81;98.15
39823;BME280;25499;53.958;10.970;2022-11-20T10:47:16;100775.44;;;2.81;97.74
39823;BME280;25499;53.958;10.970;2022-11-20T10:49:48;100767.97;;;2.60;97.98
39823;BME280;25499;53.958;10.970;2022-11-20T10:58:24;100768.25;;;2.40;99.44
39823;BME280;25499;53.958;10.970;2022-11-20T11:01:26;100772.38;;;2.35;100.00
39823;BME280;25499;53.958;10.970;2022-11-20T11:03:53;100765.81;;;2.16;100.00
39823;BME280;25499;53.958;10.970;2022-11-20T11:06:34;100782.25;;;2.50;100.00
39823;BME280;25499;53.958;10.970;2022-11-20T11:09:27;100788.91;;;2.72;100.00
39823;BME280;25499;53.958;10.970;2022-11-20T11:11:55;100782.16;;;2.47;99.77
39823;BME280;25499;53.958;10.970;2022-11-20T11:14:20;100769.75;;;2.34;98.36
39823;BME280;25499;53.958;10.970;2022-11-20T11:16:57;100762.31;;;2.14;97.89
39823;BME280;25499;53.958;10.970;2022-11-20T11:19:23;100763.75;;;2.33;97.54
39823;BME280;25499;53.958;10.970;2022-11-20T11:21:55;100762.28;;;2.41;97.09
39823;BME280;25499;53.958;10.970;2022-11-20T11:24:27;100764.72;;;2.37;97.33
39823;BME280;25499;53.958;10.970;2022-11-20T11:29:21;100761.94;;;2.29;97.88
39823;BME280;25499;53.958;10.970;2022-11-20T11:31:47;100771.50;;;2.35;97.93
39823;BME280;25499;53.958;10.970;2022-11-20T11:34:17;100766.56;;;2.14;98.12
39823;BME280;25499;53.958;10.970;2022-11-20T11:36:56;100771.22;;;2.26;98.49
39823;BME280;25499;53.958;10.970;2022-11-20T11:39:23;100764.94;;;2.16;98.62
39823;BME280;25499;53.958;10.970;2022-11-20T11:41:51;100756.28;;;2.12;98.73
39823;BME280;25499;53.958;10.970;2022-11-20T11:44:19;100767.41;;;2.13;98.63
39823;BME280;25499;53.958;10.970;2022-11-20T11:47:06;100759.84;;;2.17;99.01
39823;BME280;25499;53.958;10.970;2022-11-20T11:49:36;100758.84;;;2.12;99.06
39823;BME280;25499;53.958;10.970;2022-11-20T11:52:12;100760.41;;;2.07;99.18
39823;BME280;25499;53.958;10.970;2022-11-20T11:54:48;100754.53;;;2.11;99.19
39823;BME280;25499;53.958;10.970;2022-11-20T12:00:02;100752.53;;;2.02;99.28
39823;BME280;25499;53.958;10.970;2022-11-20T12:02:52;100753.50;;;2.06;100.00
39823;BME280;25499;53.958;10.970;2022-11-20T12:05:40;100746.44;;;1.99;100.00
39823;BME280;25499;53.958;10.970;2022-11-20T12:08:29;100734.88;;;2.13;100.00
39823;BME280;25499;53.958;10.970;2022-11-20T12:11:03;100734.97;;;2.16;100.00
39823;BME280;25499;53.958;10.970;2022-11-20T12:16:19;100727.66;;;2.29;99.95
39823;BME280;25499;53.958;10.970;2022-11-20T12:18:46;100724.56;;;2.40;99.63
39823;BME280;25499;53.958;10.970;2022-11-20T12:30:07;100718.41;;;2.64;98.09
39823;BME280;25499;53.958;10.970;2022-11-20T12:44:24;100714.09;;;2.95;95.87
39823;BME280;25499;53.958;10.970;2022-11-20T13:02:34;100715.47;;;3.14;94.66
39823;BME280;25499;53.958;10.970;2022-11-20T13:05:19;100714.78;;;3.20;94.13
39823;BME280;25499;53.958;10.970;2022-11-20T13:07:47;100722.63;;;3.24;93.82
39823;BME280;25499;53.958;10.970;2022-11-20T13:10:23;100721.72;;;3.24;93.75
39823;BME280;25499;53.958;10.970;2022-11-20T13:13:01;100713.56;;;3.07;93.91
39823;BME280;25499;53.958;10.970;2022-11-20T13:18:21;100714.59;;;3.13;95.64
39823;BME280;25499;53.958;10.970;2022-11-20T13:20:47;100710.25;;;3.11;96.52
39823;BME280;25499;53.958;10.970;2022-11-20T13:23:26;100704.28;;;3.12;96.99
39823;BME280;25499;53.958;10.970;2022-11-20T13:26:04;100702.06;;;3.26;96.88
39823;BME280;25499;53.958;10.970;2022-11-20T13:28:31;100696.72;;;3.18;96.36
39823;BME280;25499;53.958;10.970;2022-11-20T13:30:57;100693.25;;;3.16;96.18
39823;BME280;25499;53.958;10.970;2022-11-20T13:38:28;100700.88;;;3.48;95.70
39823;BME280;25499;53.958;10.970;2022-11-20T13:41:00;100700.00;;;3.46;94.18
39823;BME280;25499;53.958;10.970;2022-11-20T13:43:49;100690.22;;;3.32;92.41
39823;BME280;25499;53.958;10.970;2022-11-20T13:46:15;100691.88;;;3.30;91.86
39823;BME280;25499;53.958;10.970;2022-11-20T13:48:43;100681.47;;;3.24;91.69
39823;BME280;25499;53.958;10.970;2022-11-20T14:01:59;100679.94;;;3.32;90.94
39823;BME280;25499;53.958;10.970;2022-11-20T14:04:38;100676.63;;;3.36;90.66
39823;BME280;25499;53.958;10.970;2022-11-20T14:07:08;100676.75;;;3.41;90.22
39823;BME280;25499;53.958;10.970;2022-11-20T14:09:34;100684.50;;;3.44;90.19
39823;BME280;25499;53.958;10.970;2022-11-20T14:12:01;100674.38;;;3.50;89.41
39823;BME280;25499;53.958;10.970;2022-11-20T14:14:28;100675.47;;;3.60;88.93
39823;BME280;25499;53.958;10.970;2022-11-20T14:17:19;100667.59;;;3.54;88.66
39823;BME280;25499;53.958;10.970;2022-11-20T14:19:45;100660.28;;;3.34;88.60
39823;BME280;25499;53.958;10.970;2022-11-20T14:22:21;100673.09;;;3.33;88.96
39823;BME280;25499;53.958;10.970;2022-11-20T14:25:04;100671.38;;;3.33;88.47
39823;BME280;25499;53.958;10.970;2022-11-20T14:27:34;100670.16;;;3.17;88.67
39823;BME280;25499;53.958;10.970;2022-11-20T14:30:02;100669.03;;;3.08;88.59
39823;BME280;25499;53.958;10.970;2022-11-20T14:32:29;100663.63;;;2.98;88.82
39823;BME280;25499;53.958;10.970;2022-11-20T14:34:59;100671.13;;;2.89;88.64
39823;BME280;25499;53.958;10.970;2022-11-20T14:37:33;100665.88;;;2.86;88.28
39823;BME280;25499;53.958;10.970;2022-11-20T14:40:01;100669.94;;;2.78;88.23
39823;BME280;25499;53.958;10.970;2022-11-20T14:42:27;100663.00;;;2.74;88.22
39823;BME280;25499;53.958;10.970;2022-11-20T14:44:58;100663.91;;;2.76;88.31
39823;BME280;25499;53.958;10.970;2022-11-20T14:47:28;100660.13;;;2.63;88.55
39823;BME280;25499;53.958;10.970;2022-11-20T14:49:55;100662.72;;;2.63;88.52
39823;BME280;25499;53.958;10.970;2022-11-20T14:52:23;100653.91;;;2.55;88.33
39823;BME280;25499;53.958;10.970;2022-11-20T14:54:51;100646.72;;;2.43;87.84
39823;BME280;25499;53.958;10.970;2022-11-20T14:57:29;100643.63;;;2.24;87.94
39823;BME280;25499;53.958;10.970;2022-11-20T15:02:44;100643.91;;;2.05;88.29
39823;BME280;25499;53.958;10.970;2022-11-20T15:05:10;100633.38;;;1.96;88.54
39823;BME280;25499;53.958;10.970;2022-11-20T15:07:39;100636.94;;;2.01;88.93
39823;BME280;25499;53.958;10.970;2022-11-20T15:10:13;100641.72;;;1.89;89.66
39823;BME280;25499;53.958;10.970;2022-11-20T15:12:45;100644.19;;;1.85;89.67
39823;BME280;25499;53.958;10.970;2022-11-20T15:15:15;100640.38;;;1.73;89.68
39823;BME280;25499;53.958;10.970;2022-11-20T15:17:42;100633.09;;;1.59;89.91
39823;BME280;25499;53.958;10.970;2022-11-20T15:20:15;100633.41;;;1.68;90.11
39823;BME280;25499;53.958;10.970;2022-11-20T15:22:41;100629.72;;;1.60;90.13
39823;BME280;25499;53.958;10.970;2022-11-20T15:25:15;100629.47;;;1.53;90.46
39823;BME280;25499;53.958;10.970;2022-11-20T15:27:42;100635.34;;;1.48;90.87
39823;BME280;25499;53.958;10.970;2022-11-20T15:30:19;100636.22;;;1.49;91.19
39823;BME280;25499;53.958;10.970;2022-11-20T15:32:45;100637.81;;;1.45;90.94
39823;BME280;25499;53.958;10.970;2022-11-20T15:35:12;100639.13;;;1.33;91.36
39823;BME280;25499;53.958;10.970;2022-11-20T15:37:39;100634.88;;;1.33;91.74
39823;BME280;25499;53.958;10.970;2022-11-20T15:40:05;100633.84;;;1.28;91.83
39823;BME280;25499;53.958;10.970;2022-11-20T15:42:31;100631.56;;;1.37;92.13
39823;BME280;25499;53.958;10.970;2022-11-20T15:44:57;100644.34;;;1.36;92.42
39823;BME280;25499;53.958;10.970;2022-11-20T15:47:26;100636.41;;;1.28;92.58
39823;BME280;25499;53.958;10.970;2022-11-20T15:49:52;100638.88;;;1.25;92.73
39823;BME280;25499;53.958;10.970;2022-11-20T15:52:18;100629.25;;;1.18;93.13
39823;BME280;25499;53.958;10.970;2022-11-20T15:54:43;100621.44;;;1.15;93.31
39823;BME280;25499;53.958;10.970;2022-11-20T15:57:09;100624.22;;;1.21;93.28
39823;BME280;25499;53.958;10.970;2022-11-20T15:59:34;100622.16;;;1.10;92.90
39823;BME280;25499;53.958;10.970;2022-11-20T16:02:02;100623.03;;;1.11;92.95
39823;BME280;25499;53.958;10.970;2022-11-20T16:04:27;100619.56;;;1.09;92.82
39823;BME280;25499;53.958;10.970;2022-11-20T16:06:53;100622.56;;;0.97;92.88
39823;BME280;25499;53.958;10.970;2022-11-20T16:09:18;100619.28;;;1.01;92.97
39823;BME280;25499;53.958;10.970;2022-11-20T16:11:43;100618.47;;;1.02;93.36
39823;BME280;25499;53.958;10.970;2022-11-20T16:14:10;100621.84;;;1.01;93.39
39823;BME280;25499;53.958;10.970;2022-11-20T16:16:54;100627.03;;;1.03;93.79
39823;BME280;25499;53.958;10.970;2022-11-20T16:19:20;100623.66;;;1.04;93.92
39823;BME280;25499;53.958;10.970;2022-11-20T16:21:45;100625.53;;;1.09;93.79
39823;BME280;25499;53.958;10.970;2022-11-20T16:24:13;100624.72;;;1.10;93.31
39823;BME280;25499;53.958;10.970;2022-11-20T16:26:39;100629.81;;;1.09;93.03
39823;BME280;25499;53.958;10.970;2022-11-20T16:29:06;100616.63;;;0.98;92.87
39823;BME280;25499;53.958;10.970;2022-11-20T16:31:32;100623.66;;;1.04;92.74
39823;BME280;25499;53.958;10.970;2022-11-20T16:34:00;100621.22;;;1.08;92.70
39823;BME280;25499;53.958;10.970;2022-11-20T16:36:27;100626.22;;;1.04;92.68
39823;BME280;25499;53.958;10.970;2022-11-20T16:38:57;100627.25;;;1.09;93.05
39823;BME280;25499;53.958;10.970;2022-11-20T16:41:23;100627.47;;;1.17;93.07
39823;BME280;25499;53.958;10.970;2022-11-20T16:43:55;100623.94;;;1.13;93.10
39823;BME280;25499;53.958;10.970;2022-11-20T16:46:33;100632.50;;;1.14;93.12
39823;BME280;25499;53.958;10.970;2022-11-20T16:49:04;100633.28;;;1.11;92.90
39823;BME280;25499;53.958;10.970;2022-11-20T16:51:31;100631.47;;;1.08;92.63
39823;BME280;25499;53.958;10.970;2022-11-20T16:54:01;100626.47;;;1.11;92.71
39823;BME280;25499;53.958;10.970;2022-11-20T16:56:26;100627.53;;;1.18;92.76
39823;BME280;25499;53.958;10.970;2022-11-20T16:58:54;100627.75;;;0.99;93.03
39823;BME280;25499;53.958;10.970;2022-11-20T17:01:22;100633.00;;;1.03;94.25
39823;BME280;25499;53.958;10.970;2022-11-20T17:04:04;100635.34;;;0.96;94.64
39823;BME280;25499;53.958;10.970;2022-11-20T17:06:34;100638.53;;;0.64;95.58
39823;BME280;25499;53.958;10.970;2022-11-20T17:09:01;100639.88;;;0.79;96.73
39823;BME280;25499;53.958;10.970;2022-11-20T17:11:27;100637.50;;;0.83;96.84
39823;BME280;25499;53.958;10.970;2022-11-20T17:13:57;100636.94;;;0.68;97.10
39823;BME280;25499;53.958;10.970;2022-11-20T17:16:24;100632.38;;;0.85;97.34
39823;BME280;25499;53.958;10.970;2022-11-20T17:18:53;100623.38;;;0.70;97.14
39823;BME280;25499;53.958;10.970;2022-11-20T17:21:18;100611.44;;;0.71;97.20
39823;BME280;25499;53.958;10.970;2022-11-20T17:23:45;100620.88;;;0.98;96.69
39823;BME280;25499;53.958;10.970;2022-11-20T17:26:14;100613.84;;;0.66;95.62
39823;BME280;25499;53.958;10.970;2022-11-20T17:28:42;100610.41;;;0.42;95.56
39823;BME280;25499;53.958;10.970;2022-11-20T17:31:12;100612.69;;;0.34;95.95
39823;BME280;25499;53.958;10.970;2022-11-20T17:33:40;100617.88;;;0.35;96.35
39823;BME280;25499;53.958;10.970;2022-11-20T17:36:07;100621.16;;;0.31;96.70
39823;BME280;25499;53.958;10.970;2022-11-20T17:38:33;100612.97;;;0.17;97.59
39823;BME280;25499;53.958;10.970;2022-11-20T17:41:09;100619.19;;;0.24;98.24
39823;BME280;25499;53.958;10.970;2022-11-20T17:43:35;100620.72;;;0.19;98.63
39823;BME280;25499;53.958;10.970;2022-11-20T17:48:37;100611.94;;;0.36;99.28
39823;BME280;25499;53.958;10.970;2022-11-20T17:51:06;100622.47;;;0.44;99.52
39823;BME280;25499;53.958;10.970;2022-11-20T17:53:34;100611.13;;;0.38;99.38
39823;BME280;25499;53.958;10.970;2022-11-20T17:56:00;100612.84;;;0.39;99.73
39823;BME280;25499;53.958;10.970;2022-11-20T17:58:44;100612.00;;;0.38;99.86
39823;BME280;25499;53.958;10.970;2022-11-20T18:01:09;100606.31;;;0.47;99.98
39823;BME280;25499;53.958;10.970;2022-11-20T18:03:35;100616.50;;;0.45;100.00
39823;BME280;25499;53.958;10.970;2022-11-20T18:08:34;100604.13;;;0.33;100.00
39823;BME280;25499;53.958;10.970;2022-11-20T18:10:59;100603.34;;;0.34;100.00
39823;BME280;25499;53.958;10.970;2022-11-20T18:13:24;100602.72;;;0.42;100.00
39823;BME280;25499;53.958;10.970;2022-11-20T18:16:10;100593.03;;;0.33;100.00
39823;BME280;25499;53.958;10.970;2022-11-20T18:18:35;100597.63;;;0.17;100.00
39823;BME280;25499;53.958;10.970;2022-11-20T18:21:01;100595.97;;;0.20;100.00
39823;BME280;25499;53.958;10.970;2022-11-20T18:23:26;100594.63;;;0.05;100.00
39823;BME280;25499;53.958;10.970;2022-11-20T18:25:51;100588.78;;;0.09;100.00
39823;BME280;25499;53.958;10.970;2022-11-20T18:28:17;100589.31;;;0.01;100.00
39823;BME280;25499;53.958;10.970;2022-11-20T18:30:43;100592.34;;;-0.10;100.00
39823;BME280;25499;53.958;10.970;2022-11-20T18:33:09;100597.47;;;-0.10;100.00
39823;BME280;25499;53.958;10.970;2022-11-20T18:35:34;100595.38;;;-0.20;100.00
39823;BME280;25499;53.958;10.970;2022-11-20T18:38:00;100585.47;;;-0.11;100.00
39823;BME280;25499;53.958;10.970;2022-11-20T18:40:25;100582.00;;;-0.13;100.00
39823;BME280;25499;53.958;10.970;2022-11-20T18:42:50;100569.03;;;-0.17;100.00
39823;BME280;25499;53.958;10.970;2022-11-20T18:45:34;100572.19;;;-0.25;100.00
39823;BME280;25499;53.958;10.970;2022-11-20T18:48:00;100572.41;;;-0.18;100.00
39823;BME280;25499;53.958;10.970;2022-11-20T18:50:25;100567.91;;;-0.24;100.00
39823;BME280;25499;53.958;10.970;2022-11-20T18:52:51;100566.06;;;-0.28;100.00
39823;BME280;25499;53.958;10.970;2022-11-20T18:55:16;100568.84;;;-0.45;99.52
39823;BME280;25499;53.958;10.970;2022-11-20T18:57:41;100555.88;;;-0.49;99.15
39823;BME280;25499;53.958;10.970;2022-11-20T19:00:08;100565.66;;;-0.39;99.34
39823;BME280;25499;53.958;10.970;2022-11-20T19:02:33;100562.09;;;-0.43;99.67
39823;BME280;25499;53.958;10.970;2022-11-20T19:04:59;100565.50;;;-0.44;100.00
39823;BME280;25499;53.958;10.970;2022-11-20T19:07:25;100560.00;;;-0.53;100.00
39823;BME280;25499;53.958;10.970;2022-11-20T19:09:51;100558.28;;;-0.31;100.00
39823;BME280;25499;53.958;10.970;2022-11-20T19:12:17;100554.16;;;-0.50;100.00
39823;BME280;25499;53.958;10.970;2022-11-20T19:14:43;100551.72;;;-0.47;100.00
39823;BME280;25499;53.958;10.970;2022-11-20T19:17:09;100545.66;;;-0.49;100.00
39823;BME280;25499;53.958;10.970;2022-11-20T19:19:36;100539.09;;;-0.65;100.00
39823;BME280;25499;53.958;10.970;2022-11-20T19:22:01;100531.53;;;-0.85;100.00
39823;BME280;25499;53.958;10.970;2022-11-20T19:24:28;100547.41;;;-0.71;100.00
39823;BME280;25499;53.958;10.970;2022-11-20T19:26:54;100545.59;;;-0.73;100.00
39823;BME280;25499;53.958;10.970;2022-11-20T19:29:21;100545.06;;;-0.65;100.00
39823;BME280;25499;53.958;10.970;2022-11-20T19:31:46;100546.94;;;-0.61;100.00
39823;BME280;25499;53.958;10.970;2022-11-20T19:34:13;100556.06;;;-0.45;100.00
39823;BME280;25499;53.958;10.970;2022-11-20T19:36:39;100549.69;;;-0.56;100.00
39823;BME280;25499;53.958;10.970;2022-11-20T19:39:09;100549.19;;;-0.68;100.00
39823;BME280;25499;53.958;10.970;2022-11-20T19:41:36;100550.28;;;-0.84;100.00
39823;BME280;25499;53.958;10.970;2022-11-20T19:44:07;100547.66;;;-0.86;100.00
39823;BME280;25499;53.958;10.970;2022-11-20T19:46:34;100545.16;;;-1.07;100.00
39823;BME280;25499;53.958;10.970;2022-11-20T19:49:01;100548.69;;;-1.03;100.00
39823;BME280;25499;53.958;10.970;2022-11-20T19:51:29;100549.22;;;-1.10;100.00
39823;BME280;25499;53.958;10.970;2022-11-20T19:53:56;100547.88;;;-1.02;100.00
39823;BME280;25499;53.958;10.970;2022-11-20T19:56:23;100548.75;;;-1.02;100.00
39823;BME280;25499;53.958;10.970;2022-11-20T19:58:49;100544.50;;;-1.01;100.00
39823;BME280;25499;53.958;10.970;2022-11-20T20:01:17;100539.69;;;-0.94;100.00
39823;BME280;25499;53.958;10.970;2022-11-20T20:10:27;100526.31;;;-1.09;100.00
39823;BME280;25499;53.958;10.970;2022-11-20T20:12:53;100524.25;;;-1.18;100.00
39823;BME280;25499;53.958;10.970;2022-11-20T20:15:18;100531.50;;;-1.28;100.00
39823;BME280;25499;53.958;10.970;2022-11-20T20:17:46;100528.19;;;-1.26;100.00
39823;BME280;25499;53.958;10.970;2022-11-20T20:20:12;100530.84;;;-1.23;100.00
39823;BME280;25499;53.958;10.970;2022-11-20T20:22:39;100516.22;;;-1.06;100.00
39823;BME280;25499;53.958;10.970;2022-11-20T20:25:06;100517.53;;;-1.16;100.00
39823;BME280;25499;53.958;10.970;2022-11-20T20:27:32;100516.38;;;-1.24;100.00
39823;BME280;25499;53.958;10.970;2022-11-20T20:29:57;100515.88;;;-1.15;100.00
39823;BME280;25499;53.958;10.970;2022-11-20T20:32:22;100513.53;;;-1.09;100.00
39823;BME280;25499;53.958;10.970;2022-11-20T20:34:48;100502.81;;;-1.00;100.00
39823;BME280;25499;53.958;10.970;2022-11-20T20:37:19;100509.94;;;-1.14;100.00
39823;BME280;25499;53.958;10.970;2022-11-20T20:39:45;100505.44;;;-1.20;100.00
39823;BME280;25499;53.958;10.970;2022-11-20T20:42:10;100507.00;;;-1.23;100.00
39823;BME280;25499;53.958;10.970;2022-11-20T20:44:35;100500.16;;;-1.45;100.00
39823;BME280;25499;53.958;10.970;2022-11-20T20:47:19;100506.81;;;-1.28;100.00
